Anchorville, Michigan
Current Conditions -  °F | °C
As of 7:55 PM on Tuesday 27 Jan 2015 (Local Time) from KMTC Reporting Station
Clear Clear  
Wind Chill:   Ceiling: Unl
Heat Index: 19°   Visibility: 12mi
Dew Point: 11°   Wind: 8mph
Humidity: 72%   Direction: 330°NNW
Pressure: 30.19"   Gusts: NA
Location:  42.69°N, 82.7°W
Report Text: KMTC 280055Z 33007KT 12SM CLR M07/M12 A3019 RMK SLP242 T10751117
Loading
Personal Weather Stations






























Interactive Weather Map New forecast layout! Learn more

10-Day Weather Forecast

Advertisements
Track Severe Weather on mobile